sensor_id;sensor_type;location;lat;lon;timestamp;P1;durP1;ratioP1;P2;durP2;ratioP2
61523;SDS011;47393;38.758;-9.164;2023-02-01T00:00:54;11.13;;;6.93;;
61523;SDS011;47393;38.758;-9.164;2023-02-01T00:02:55;12.32;;;7.03;;
61523;SDS011;47393;38.758;-9.164;2023-02-01T00:04:55;12.82;;;7.60;;
61523;SDS011;47393;38.758;-9.164;2023-02-01T00:06:56;7.85;;;7.00;;
61523;SDS011;47393;38.758;-9.164;2023-02-01T00:08:57;14.18;;;7.72;;
61523;SDS011;47393;38.758;-9.164;2023-02-01T00:11:04;15.18;;;9.85;;
61523;SDS011;47393;38.758;-9.164;2023-02-01T00:13:05;13.43;;;8.95;;
61523;SDS011;47393;38.758;-9.164;2023-02-01T00:15:05;13.25;;;6.40;;
61523;SDS011;47393;38.758;-9.164;2023-02-01T00:17:06;13.52;;;8.18;;
61523;SDS011;47393;38.758;-9.164;2023-02-01T00:19:10;17.35;;;8.25;;
61523;SDS011;47393;38.758;-9.164;2023-02-01T00:21:11;23.10;;;9.38;;
61523;SDS011;47393;38.758;-9.164;2023-02-01T00:23:12;15.25;;;8.10;;
61523;SDS011;47393;38.758;-9.164;2023-02-01T00:25:12;12.52;;;8.27;;
61523;SDS011;47393;38.758;-9.164;2023-02-01T00:27:13;13.23;;;8.50;;
61523;SDS011;47393;38.758;-9.164;2023-02-01T00:31:18;15.75;;;7.82;;
61523;SDS011;47393;38.758;-9.164;2023-02-01T00:33:19;11.35;;;8.85;;
61523;SDS011;47393;38.758;-9.164;2023-02-01T00:35:19;16.63;;;8.20;;
61523;SDS011;47393;38.758;-9.164;2023-02-01T00:37:20;13.20;;;7.53;;
61523;SDS011;47393;38.758;-9.164;2023-02-01T00:39:22;16.85;;;9.13;;
61523;SDS011;47393;38.758;-9.164;2023-02-01T00:41:23;12.88;;;9.25;;
61523;SDS011;47393;38.758;-9.164;2023-02-01T00:43:23;16.75;;;8.68;;
61523;SDS011;47393;38.758;-9.164;2023-02-01T00:45:24;19.05;;;10.30;;
61523;SDS011;47393;38.758;-9.164;2023-02-01T00:47:25;10.15;;;8.60;;
61523;SDS011;47393;38.758;-9.164;2023-02-01T00:49:30;12.75;;;9.43;;
61523;SDS011;47393;38.758;-9.164;2023-02-01T00:51:31;17.58;;;10.25;;
61523;SDS011;47393;38.758;-9.164;2023-02-01T00:53:32;15.65;;;9.25;;
61523;SDS011;47393;38.758;-9.164;2023-02-01T00:55:35;13.02;;;9.90;;
61523;SDS011;47393;38.758;-9.164;2023-02-01T00:57:36;15.20;;;9.05;;
61523;SDS011;47393;38.758;-9.164;2023-02-01T00:59:37;10.68;;;8.85;;
61523;SDS011;47393;38.758;-9.164;2023-02-01T01:01:38;16.02;;;10.02;;
61523;SDS011;47393;38.758;-9.164;2023-02-01T01:03:42;19.90;;;10.90;;
61523;SDS011;47393;38.758;-9.164;2023-02-01T01:05:47;18.15;;;10.90;;
61523;SDS011;47393;38.758;-9.164;2023-02-01T01:07:48;17.13;;;11.00;;
61523;SDS011;47393;38.758;-9.164;2023-02-01T01:09:48;15.40;;;10.90;;
61523;SDS011;47393;38.758;-9.164;2023-02-01T01:11:58;21.25;;;10.43;;
61523;SDS011;47393;38.758;-9.164;2023-02-01T01:19:32;17.60;;;10.45;;
61523;SDS011;47393;38.758;-9.164;2023-02-01T01:22:00;11.90;;;9.77;;
61523;SDS011;47393;38.758;-9.164;2023-02-01T01:24:20;15.65;;;11.50;;
61523;SDS011;47393;38.758;-9.164;2023-02-01T01:28:54;21.83;;;11.73;;
61523;SDS011;47393;38.758;-9.164;2023-02-01T01:30:59;20.67;;;12.15;;
61523;SDS011;47393;38.758;-9.164;2023-02-01T01:33:14;28.60;;;11.57;;
61523;SDS011;47393;38.758;-9.164;2023-02-01T01:35:17;16.10;;;11.10;;
61523;SDS011;47393;38.758;-9.164;2023-02-01T01:37:19;22.20;;;13.10;;
61523;SDS011;47393;38.758;-9.164;2023-02-01T01:39:20;25.20;;;13.40;;
61523;SDS011;47393;38.758;-9.164;2023-02-01T01:41:25;23.25;;;12.77;;
61523;SDS011;47393;38.758;-9.164;2023-02-01T01:43:44;16.85;;;12.57;;
61523;SDS011;47393;38.758;-9.164;2023-02-01T01:45:49;25.33;;;14.57;;
61523;SDS011;47393;38.758;-9.164;2023-02-01T01:50:01;25.88;;;14.02;;
61523;SDS011;47393;38.758;-9.164;2023-02-01T01:52:06;24.73;;;14.82;;
61523;SDS011;47393;38.758;-9.164;2023-02-01T01:54:12;23.95;;;13.98;;
61523;SDS011;47393;38.758;-9.164;2023-02-01T01:56:20;16.88;;;12.93;;
61523;SDS011;47393;38.758;-9.164;2023-02-01T01:58:22;29.40;;;15.05;;
61523;SDS011;47393;38.758;-9.164;2023-02-01T02:00:25;39.42;;;13.82;;
61523;SDS011;47393;38.758;-9.164;2023-02-01T02:02:28;17.02;;;14.20;;
61523;SDS011;47393;38.758;-9.164;2023-02-01T02:04:28;27.63;;;13.95;;
61523;SDS011;47393;38.758;-9.164;2023-02-01T02:06:34;19.83;;;14.48;;
61523;SDS011;47393;38.758;-9.164;2023-02-01T02:08:37;23.30;;;15.15;;
61523;SDS011;47393;38.758;-9.164;2023-02-01T02:10:42;31.77;;;14.77;;
61523;SDS011;47393;38.758;-9.164;2023-02-01T02:13:01;22.48;;;14.70;;
61523;SDS011;47393;38.758;-9.164;2023-02-01T02:15:01;28.77;;;15.85;;
61523;SDS011;47393;38.758;-9.164;2023-02-01T02:17:13;24.63;;;16.02;;
61523;SDS011;47393;38.758;-9.164;2023-02-01T02:26:19;32.85;;;17.35;;
61523;SDS011;47393;38.758;-9.164;2023-02-01T02:35:30;27.90;;;16.98;;
61523;SDS011;47393;38.758;-9.164;2023-02-01T02:44:23;25.23;;;17.40;;
61523;SDS011;47393;38.758;-9.164;2023-02-01T02:46:46;40.03;;;18.85;;
61523;SDS011;47393;38.758;-9.164;2023-02-01T02:51:12;34.63;;;17.52;;
61523;SDS011;47393;38.758;-9.164;2023-02-01T02:53:41;29.25;;;18.30;;
61523;SDS011;47393;38.758;-9.164;2023-02-01T02:56:05;27.17;;;17.15;;
61523;SDS011;47393;38.758;-9.164;2023-02-01T02:58:25;23.45;;;16.75;;
61523;SDS011;47393;38.758;-9.164;2023-02-01T03:00:49;28.50;;;17.33;;
61523;SDS011;47393;38.758;-9.164;2023-02-01T03:03:14;27.42;;;17.77;;
61523;SDS011;47393;38.758;-9.164;2023-02-01T03:05:36;28.75;;;17.17;;
61523;SDS011;47393;38.758;-9.164;2023-02-01T03:09:45;27.77;;;17.48;;
61523;SDS011;47393;38.758;-9.164;2023-02-01T03:11:48;31.88;;;18.20;;
61523;SDS011;47393;38.758;-9.164;2023-02-01T03:14:12;34.63;;;18.80;;
61523;SDS011;47393;38.758;-9.164;2023-02-01T03:16:31;27.70;;;18.15;;
61523;SDS011;47393;38.758;-9.164;2023-02-01T03:18:35;27.17;;;18.85;;
61523;SDS011;47393;38.758;-9.164;2023-02-01T03:20:41;38.53;;;18.42;;
61523;SDS011;47393;38.758;-9.164;2023-02-01T03:22:44;23.20;;;17.88;;
61523;SDS011;47393;38.758;-9.164;2023-02-01T03:24:47;32.45;;;18.63;;
61523;SDS011;47393;38.758;-9.164;2023-02-01T03:26:51;37.90;;;19.08;;
61523;SDS011;47393;38.758;-9.164;2023-02-01T03:28:55;37.58;;;19.27;;
61523;SDS011;47393;38.758;-9.164;2023-02-01T03:30:56;28.05;;;19.25;;
61523;SDS011;47393;38.758;-9.164;2023-02-01T03:32:59;37.22;;;20.63;;
61523;SDS011;47393;38.758;-9.164;2023-02-01T03:35:06;29.90;;;20.55;;
61523;SDS011;47393;38.758;-9.164;2023-02-01T03:39:22;35.85;;;20.45;;
61523;SDS011;47393;38.758;-9.164;2023-02-01T03:44:16;42.65;;;22.42;;
61523;SDS011;47393;38.758;-9.164;2023-02-01T03:46:20;46.13;;;21.75;;
61523;SDS011;47393;38.758;-9.164;2023-02-01T03:48:23;36.88;;;21.83;;
61523;SDS011;47393;38.758;-9.164;2023-02-01T03:50:26;34.33;;;21.85;;
61523;SDS011;47393;38.758;-9.164;2023-02-01T03:52:30;42.58;;;23.50;;
61523;SDS011;47393;38.758;-9.164;2023-02-01T03:54:37;36.13;;;23.45;;
61523;SDS011;47393;38.758;-9.164;2023-02-01T04:08:25;50.60;;;24.88;;
61523;SDS011;47393;38.758;-9.164;2023-02-01T04:10:53;41.83;;;24.10;;
61523;SDS011;47393;38.758;-9.164;2023-02-01T04:12:53;38.28;;;23.77;;
61523;SDS011;47393;38.758;-9.164;2023-02-01T04:14:54;49.38;;;26.05;;
61523;SDS011;47393;38.758;-9.164;2023-02-01T04:16:55;55.30;;;27.73;;
61523;SDS011;47393;38.758;-9.164;2023-02-01T04:18:55;47.58;;;26.30;;
61523;SDS011;47393;38.758;-9.164;2023-02-01T04:20:57;43.95;;;26.75;;
61523;SDS011;47393;38.758;-9.164;2023-02-01T04:23:01;43.35;;;26.50;;
61523;SDS011;47393;38.758;-9.164;2023-02-01T04:27:03;44.05;;;25.88;;
61523;SDS011;47393;38.758;-9.164;2023-02-01T04:29:04;43.50;;;25.70;;
61523;SDS011;47393;38.758;-9.164;2023-02-01T04:31:05;53.97;;;28.48;;
61523;SDS011;47393;38.758;-9.164;2023-02-01T04:33:05;53.25;;;29.05;;
61523;SDS011;47393;38.758;-9.164;2023-02-01T04:35:06;45.67;;;29.15;;
61523;SDS011;47393;38.758;-9.164;2023-02-01T04:37:07;48.03;;;28.63;;
61523;SDS011;47393;38.758;-9.164;2023-02-01T04:39:08;50.63;;;30.73;;
61523;SDS011;47393;38.758;-9.164;2023-02-01T04:41:09;62.00;;;29.52;;
61523;SDS011;47393;38.758;-9.164;2023-02-01T04:43:10;50.53;;;30.67;;
61523;SDS011;47393;38.758;-9.164;2023-02-01T04:45:16;66.03;;;31.15;;
61523;SDS011;47393;38.758;-9.164;2023-02-01T04:47:20;60.75;;;31.58;;
61523;SDS011;47393;38.758;-9.164;2023-02-01T04:49:21;63.37;;;32.27;;
61523;SDS011;47393;38.758;-9.164;2023-02-01T04:51:22;71.28;;;35.38;;
61523;SDS011;47393;38.758;-9.164;2023-02-01T04:53:25;50.30;;;33.90;;
61523;SDS011;47393;38.758;-9.164;2023-02-01T04:55:27;53.92;;;34.15;;
61523;SDS011;47393;38.758;-9.164;2023-02-01T04:57:28;58.47;;;35.65;;
61523;SDS011;47393;38.758;-9.164;2023-02-01T04:59:29;60.67;;;33.47;;
61523;SDS011;47393;38.758;-9.164;2023-02-01T05:01:30;64.28;;;33.90;;
61523;SDS011;47393;38.758;-9.164;2023-02-01T05:03:33;53.60;;;33.10;;
61523;SDS011;47393;38.758;-9.164;2023-02-01T05:05:34;61.83;;;33.42;;
61523;SDS011;47393;38.758;-9.164;2023-02-01T05:07:35;63.45;;;31.50;;
61523;SDS011;47393;38.758;-9.164;2023-02-01T05:09:35;75.07;;;33.78;;
61523;SDS011;47393;38.758;-9.164;2023-02-01T05:11:36;73.05;;;33.63;;
61523;SDS011;47393;38.758;-9.164;2023-02-01T05:14:10;63.58;;;33.53;;
61523;SDS011;47393;38.758;-9.164;2023-02-01T05:16:10;61.17;;;35.45;;
61523;SDS011;47393;38.758;-9.164;2023-02-01T05:20:30;57.45;;;33.95;;
61523;SDS011;47393;38.758;-9.164;2023-02-01T05:22:31;59.70;;;32.97;;
61523;SDS011;47393;38.758;-9.164;2023-02-01T05:24:32;53.03;;;32.75;;
61523;SDS011;47393;38.758;-9.164;2023-02-01T05:26:33;57.03;;;33.63;;
61523;SDS011;47393;38.758;-9.164;2023-02-01T05:28:33;53.78;;;32.17;;
61523;SDS011;47393;38.758;-9.164;2023-02-01T05:30:34;74.68;;;35.10;;
61523;SDS011;47393;38.758;-9.164;2023-02-01T05:32:35;70.80;;;35.20;;
61523;SDS011;47393;38.758;-9.164;2023-02-01T05:34:36;63.42;;;35.60;;
61523;SDS011;47393;38.758;-9.164;2023-02-01T05:36:37;73.15;;;34.17;;
61523;SDS011;47393;38.758;-9.164;2023-02-01T05:38:38;64.05;;;33.88;;
61523;SDS011;47393;38.758;-9.164;2023-02-01T05:40:38;77.10;;;36.70;;
61523;SDS011;47393;38.758;-9.164;2023-02-01T05:42:39;76.80;;;37.17;;
61523;SDS011;47393;38.758;-9.164;2023-02-01T05:44:40;62.15;;;35.17;;
61523;SDS011;47393;38.758;-9.164;2023-02-01T05:46:41;70.30;;;35.92;;
61523;SDS011;47393;38.758;-9.164;2023-02-01T05:48:42;73.05;;;35.42;;
61523;SDS011;47393;38.758;-9.164;2023-02-01T05:50:43;66.15;;;37.90;;
61523;SDS011;47393;38.758;-9.164;2023-02-01T05:52:44;69.55;;;39.03;;
61523;SDS011;47393;38.758;-9.164;2023-02-01T05:54:45;73.78;;;37.30;;
61523;SDS011;47393;38.758;-9.164;2023-02-01T05:56:47;77.65;;;39.72;;
61523;SDS011;47393;38.758;-9.164;2023-02-01T05:58:48;84.93;;;38.83;;
61523;SDS011;47393;38.758;-9.164;2023-02-01T06:00:49;84.70;;;39.08;;
61523;SDS011;47393;38.758;-9.164;2023-02-01T06:02:49;73.95;;;37.83;;
61523;SDS011;47393;38.758;-9.164;2023-02-01T06:05:02;91.18;;;40.42;;
61523;SDS011;47393;38.758;-9.164;2023-02-01T06:07:03;79.47;;;41.17;;
61523;SDS011;47393;38.758;-9.164;2023-02-01T06:09:07;83.15;;;42.78;;
61523;SDS011;47393;38.758;-9.164;2023-02-01T06:11:08;97.00;;;44.38;;
61523;SDS011;47393;38.758;-9.164;2023-02-01T06:13:09;92.30;;;44.92;;
61523;SDS011;47393;38.758;-9.164;2023-02-01T06:15:10;101.57;;;45.55;;
61523;SDS011;47393;38.758;-9.164;2023-02-01T06:17:11;89.82;;;44.45;;
61523;SDS011;47393;38.758;-9.164;2023-02-01T06:19:12;83.25;;;42.03;;
61523;SDS011;47393;38.758;-9.164;2023-02-01T06:21:13;94.88;;;44.95;;
61523;SDS011;47393;38.758;-9.164;2023-02-01T06:23:23;95.70;;;44.78;;
61523;SDS011;47393;38.758;-9.164;2023-02-01T06:25:31;100.53;;;44.40;;
61523;SDS011;47393;38.758;-9.164;2023-02-01T06:27:32;83.28;;;43.65;;
61523;SDS011;47393;38.758;-9.164;2023-02-01T06:29:33;95.63;;;45.17;;
61523;SDS011;47393;38.758;-9.164;2023-02-01T06:31:33;89.80;;;45.35;;
61523;SDS011;47393;38.758;-9.164;2023-02-01T06:33:34;88.95;;;44.53;;
61523;SDS011;47393;38.758;-9.164;2023-02-01T06:35:35;101.28;;;44.70;;
61523;SDS011;47393;38.758;-9.164;2023-02-01T06:37:36;87.05;;;45.70;;
61523;SDS011;47393;38.758;-9.164;2023-02-01T06:39:37;103.43;;;48.53;;
61523;SDS011;47393;38.758;-9.164;2023-02-01T06:41:38;108.95;;;46.67;;
61523;SDS011;47393;38.758;-9.164;2023-02-01T06:43:39;111.80;;;49.83;;
61523;SDS011;47393;38.758;-9.164;2023-02-01T06:45:40;101.95;;;49.83;;
61523;SDS011;47393;38.758;-9.164;2023-02-01T06:47:42;119.07;;;53.50;;
61523;SDS011;47393;38.758;-9.164;2023-02-01T06:49:42;133.55;;;54.38;;
61523;SDS011;47393;38.758;-9.164;2023-02-01T06:51:43;127.80;;;56.15;;
61523;SDS011;47393;38.758;-9.164;2023-02-01T06:53:44;133.13;;;57.58;;
61523;SDS011;47393;38.758;-9.164;2023-02-01T06:55:53;139.70;;;58.38;;
61523;SDS011;47393;38.758;-9.164;2023-02-01T06:57:54;116.53;;;57.10;;
61523;SDS011;47393;38.758;-9.164;2023-02-01T06:59:55;123.13;;;58.85;;
61523;SDS011;47393;38.758;-9.164;2023-02-01T07:01:56;134.20;;;63.28;;
61523;SDS011;47393;38.758;-9.164;2023-02-01T07:03:57;148.02;;;64.40;;
61523;SDS011;47393;38.758;-9.164;2023-02-01T07:05:57;135.13;;;61.30;;
61523;SDS011;47393;38.758;-9.164;2023-02-01T07:08:01;156.30;;;63.30;;
61523;SDS011;47393;38.758;-9.164;2023-02-01T07:10:02;132.48;;;61.55;;
61523;SDS011;47393;38.758;-9.164;2023-02-01T07:15:28;149.65;;;60.47;;
61523;SDS011;47393;38.758;-9.164;2023-02-01T07:21:18;169.02;;;61.65;;
61523;SDS011;47393;38.758;-9.164;2023-02-01T07:27:11;151.25;;;63.38;;
61523;SDS011;47393;38.758;-9.164;2023-02-01T07:29:12;179.27;;;71.65;;
61523;SDS011;47393;38.758;-9.164;2023-02-01T07:31:17;145.52;;;68.68;;
61523;SDS011;47393;38.758;-9.164;2023-02-01T07:33:23;164.05;;;68.47;;
61523;SDS011;47393;38.758;-9.164;2023-02-01T07:35:24;143.07;;;67.70;;
61523;SDS011;47393;38.758;-9.164;2023-02-01T07:37:37;165.30;;;69.32;;
61523;SDS011;47393;38.758;-9.164;2023-02-01T07:39:37;162.13;;;70.80;;
61523;SDS011;47393;38.758;-9.164;2023-02-01T07:41:38;164.68;;;70.35;;
61523;SDS011;47393;38.758;-9.164;2023-02-01T07:43:39;179.07;;;75.45;;
61523;SDS011;47393;38.758;-9.164;2023-02-01T07:45:41;176.32;;;76.80;;
61523;SDS011;47393;38.758;-9.164;2023-02-01T07:47:42;175.52;;;78.60;;
61523;SDS011;47393;38.758;-9.164;2023-02-01T07:49:44;193.63;;;77.63;;
61523;SDS011;47393;38.758;-9.164;2023-02-01T07:51:53;173.30;;;73.45;;
61523;SDS011;47393;38.758;-9.164;2023-02-01T07:53:54;195.10;;;78.68;;
61523;SDS011;47393;38.758;-9.164;2023-02-01T07:55:55;197.25;;;81.03;;
61523;SDS011;47393;38.758;-9.164;2023-02-01T07:57:59;205.13;;;77.85;;
61523;SDS011;47393;38.758;-9.164;2023-02-01T08:00:02;216.57;;;86.38;;
61523;SDS011;47393;38.758;-9.164;2023-02-01T08:02:27;199.73;;;80.63;;
61523;SDS011;47393;38.758;-9.164;2023-02-01T08:04:31;187.07;;;80.18;;
61523;SDS011;47393;38.758;-9.164;2023-02-01T08:06:33;194.38;;;86.63;;
61523;SDS011;47393;38.758;-9.164;2023-02-01T08:08:49;192.05;;;83.60;;
61523;SDS011;47393;38.758;-9.164;2023-02-01T08:10:58;202.25;;;83.22;;
61523;SDS011;47393;38.758;-9.164;2023-02-01T08:13:11;165.63;;;80.53;;
61523;SDS011;47393;38.758;-9.164;2023-02-01T08:15:48;147.02;;;71.78;;
61523;SDS011;47393;38.758;-9.164;2023-02-01T08:17:52;132.40;;;65.32;;
61523;SDS011;47393;38.758;-9.164;2023-02-01T08:20:06;95.80;;;57.75;;
61523;SDS011;47393;38.758;-9.164;2023-02-01T08:22:22;84.38;;;45.67;;
61523;SDS011;47393;38.758;-9.164;2023-02-01T08:24:29;77.03;;;36.75;;
61523;SDS011;47393;38.758;-9.164;2023-02-01T08:29:19;67.07;;;34.92;;
61523;SDS011;47393;38.758;-9.164;2023-02-01T08:31:41;53.65;;;31.67;;
61523;SDS011;47393;38.758;-9.164;2023-02-01T08:33:54;58.55;;;30.35;;
61523;SDS011;47393;38.758;-9.164;2023-02-01T08:36:06;54.63;;;27.85;;
61523;SDS011;47393;38.758;-9.164;2023-02-01T08:38:09;54.55;;;27.77;;
61523;SDS011;47393;38.758;-9.164;2023-02-01T08:40:19;47.20;;;27.48;;
61523;SDS011;47393;38.758;-9.164;2023-02-01T08:42:22;42.00;;;24.58;;
61523;SDS011;47393;38.758;-9.164;2023-02-01T08:45:06;39.88;;;24.05;;
61523;SDS011;47393;38.758;-9.164;2023-02-01T08:47:31;42.25;;;23.85;;
61523;SDS011;47393;38.758;-9.164;2023-02-01T08:49:48;44.08;;;23.85;;
61523;SDS011;47393;38.758;-9.164;2023-02-01T08:52:28;38.97;;;23.50;;
61523;SDS011;47393;38.758;-9.164;2023-02-01T08:57:35;30.02;;;23.00;;
61523;SDS011;47393;38.758;-9.164;2023-02-01T09:03:29;30.73;;;21.70;;
61523;SDS011;47393;38.758;-9.164;2023-02-01T09:06:30;29.48;;;22.13;;
61523;SDS011;47393;38.758;-9.164;2023-02-01T09:14:00;27.95;;;21.90;;
61523;SDS011;47393;38.758;-9.164;2023-02-01T09:16:09;35.83;;;24.00;;
61523;SDS011;47393;38.758;-9.164;2023-02-01T09:18:13;29.90;;;23.00;;
61523;SDS011;47393;38.758;-9.164;2023-02-01T09:20:17;31.38;;;24.02;;
61523;SDS011;47393;38.758;-9.164;2023-02-01T09:22:24;41.40;;;25.52;;
61523;SDS011;47393;38.758;-9.164;2023-02-01T09:24:31;34.53;;;24.10;;
61523;SDS011;47393;38.758;-9.164;2023-02-01T09:29:13;42.42;;;24.95;;
61523;SDS011;47393;38.758;-9.164;2023-02-01T09:32:06;32.22;;;24.60;;
61523;SDS011;47393;38.758;-9.164;2023-02-01T09:35:09;41.38;;;27.58;;
61523;SDS011;47393;38.758;-9.164;2023-02-01T09:38:11;47.60;;;29.25;;
61523;SDS011;47393;38.758;-9.164;2023-02-01T09:48:21;47.95;;;29.73;;
61523;SDS011;47393;38.758;-9.164;2023-02-01T09:50:42;35.40;;;27.38;;
61523;SDS011;47393;38.758;-9.164;2023-02-01T09:52:54;35.45;;;27.85;;
61523;SDS011;47393;38.758;-9.164;2023-02-01T09:55:02;42.08;;;28.35;;
61523;SDS011;47393;38.758;-9.164;2023-02-01T10:03:37;37.38;;;25.15;;
61523;SDS011;47393;38.758;-9.164;2023-02-01T10:10:45;48.42;;;24.33;;
61523;SDS011;47393;38.758;-9.164;2023-02-01T10:12:56;41.65;;;24.60;;
61523;SDS011;47393;38.758;-9.164;2023-02-01T10:15:21;48.45;;;26.55;;
61523;SDS011;47393;38.758;-9.164;2023-02-01T10:19:45;37.95;;;26.15;;
61523;SDS011;47393;38.758;-9.164;2023-02-01T10:29:52;39.72;;;27.52;;
61523;SDS011;47393;38.758;-9.164;2023-02-01T10:32:18;37.08;;;27.88;;
61523;SDS011;47393;38.758;-9.164;2023-02-01T10:34:28;36.63;;;26.95;;
61523;SDS011;47393;38.758;-9.164;2023-02-01T10:39:30;34.20;;;25.67;;
61523;SDS011;47393;38.758;-9.164;2023-02-01T10:41:45;43.05;;;28.52;;
61523;SDS011;47393;38.758;-9.164;2023-02-01T10:43:54;34.33;;;26.33;;
61523;SDS011;47393;38.758;-9.164;2023-02-01T10:46:22;40.42;;;27.30;;
61523;SDS011;47393;38.758;-9.164;2023-02-01T10:51:07;42.53;;;27.75;;
61523;SDS011;47393;38.758;-9.164;2023-02-01T10:59:35;45.13;;;29.55;;
61523;SDS011;47393;38.758;-9.164;2023-02-01T11:01:47;38.97;;;30.92;;
61523;SDS011;47393;38.758;-9.164;2023-02-01T11:04:26;46.58;;;27.85;;
61523;SDS011;47393;38.758;-9.164;2023-02-01T11:12:33;40.80;;;26.85;;
61523;SDS011;47393;38.758;-9.164;2023-02-01T11:15:27;44.95;;;28.27;;
61523;SDS011;47393;38.758;-9.164;2023-02-01T11:17:44;33.90;;;24.23;;
61523;SDS011;47393;38.758;-9.164;2023-02-01T11:20:00;38.70;;;27.27;;
61523;SDS011;47393;38.758;-9.164;2023-02-01T11:22:24;36.80;;;27.02;;
61523;SDS011;47393;38.758;-9.164;2023-02-01T11:27:14;34.05;;;22.77;;
61523;SDS011;47393;38.758;-9.164;2023-02-01T11:29:19;28.88;;;21.80;;
61523;SDS011;47393;38.758;-9.164;2023-02-01T11:31:33;40.65;;;23.25;;
61523;SDS011;47393;38.758;-9.164;2023-02-01T11:33:36;33.97;;;21.80;;
61523;SDS011;47393;38.758;-9.164;2023-02-01T11:35:41;31.38;;;24.27;;
61523;SDS011;47393;38.758;-9.164;2023-02-01T11:37:49;35.70;;;23.92;;
61523;SDS011;47393;38.758;-9.164;2023-02-01T11:39:56;27.40;;;23.70;;
61523;SDS011;47393;38.758;-9.164;2023-02-01T11:42:04;33.10;;;25.27;;
61523;SDS011;47393;38.758;-9.164;2023-02-01T11:44:29;33.38;;;24.95;;
61523;SDS011;47393;38.758;-9.164;2023-02-01T11:54:21;34.65;;;27.15;;
61523;SDS011;47393;38.758;-9.164;2023-02-01T12:02:38;39.38;;;28.02;;
61523;SDS011;47393;38.758;-9.164;2023-02-01T12:37:19;41.25;;;28.65;;
61523;SDS011;47393;38.758;-9.164;2023-02-01T12:43:57;30.13;;;23.60;;
61523;SDS011;47393;38.758;-9.164;2023-02-01T12:51:54;33.58;;;24.38;;
61523;SDS011;47393;38.758;-9.164;2023-02-01T12:58:02;32.28;;;24.52;;
61523;SDS011;47393;38.758;-9.164;2023-02-01T13:01:02;41.47;;;25.80;;
61523;SDS011;47393;38.758;-9.164;2023-02-01T13:09:43;38.53;;;24.33;;
61523;SDS011;47393;38.758;-9.164;2023-02-01T13:19:19;38.72;;;22.60;;
61523;SDS011;47393;38.758;-9.164;2023-02-01T13:21:25;35.72;;;22.30;;
61523;SDS011;47393;38.758;-9.164;2023-02-01T13:23:34;24.73;;;20.48;;
61523;SDS011;47393;38.758;-9.164;2023-02-01T13:25:49;19.65;;;15.43;;
61523;SDS011;47393;38.758;-9.164;2023-02-01T13:27:54;22.67;;;16.38;;
61523;SDS011;47393;38.758;-9.164;2023-02-01T13:30:00;25.02;;;16.58;;
61523;SDS011;47393;38.758;-9.164;2023-02-01T13:37:14;16.98;;;13.73;;
61523;SDS011;47393;38.758;-9.164;2023-02-01T13:44:03;16.27;;;13.10;;
61523;SDS011;47393;38.758;-9.164;2023-02-01T13:46:09;24.27;;;16.20;;
61523;SDS011;47393;38.758;-9.164;2023-02-01T13:48:21;22.10;;;14.60;;
61523;SDS011;47393;38.758;-9.164;2023-02-01T13:50:26;18.33;;;14.07;;
61523;SDS011;47393;38.758;-9.164;2023-02-01T13:52:39;28.88;;;14.30;;
61523;SDS011;47393;38.758;-9.164;2023-02-01T13:54:47;26.67;;;14.55;;
61523;SDS011;47393;38.758;-9.164;2023-02-01T14:11:30;30.27;;;12.60;;
61523;SDS011;47393;38.758;-9.164;2023-02-01T14:13:39;23.23;;;13.10;;
61523;SDS011;47393;38.758;-9.164;2023-02-01T14:16:29;25.38;;;13.85;;
61523;SDS011;47393;38.758;-9.164;2023-02-01T14:20:47;24.55;;;15.23;;
61523;SDS011;47393;38.758;-9.164;2023-02-01T14:22:54;22.42;;;14.90;;
61523;SDS011;47393;38.758;-9.164;2023-02-01T14:29:51;29.83;;;14.40;;
61523;SDS011;47393;38.758;-9.164;2023-02-01T14:34:29;20.85;;;14.85;;
61523;SDS011;47393;38.758;-9.164;2023-02-01T14:36:44;16.70;;;13.60;;
61523;SDS011;47393;38.758;-9.164;2023-02-01T14:38:53;26.42;;;15.05;;
61523;SDS011;47393;38.758;-9.164;2023-02-01T14:41:25;14.48;;;12.98;;
61523;SDS011;47393;38.758;-9.164;2023-02-01T14:47:02;23.38;;;13.05;;
61523;SDS011;47393;38.758;-9.164;2023-02-01T14:48:59;19.52;;;14.35;;
61523;SDS011;47393;38.758;-9.164;2023-02-01T14:51:12;23.20;;;14.80;;
61523;SDS011;47393;38.758;-9.164;2023-02-01T14:53:27;28.48;;;14.63;;
61523;SDS011;47393;38.758;-9.164;2023-02-01T14:57:52;21.77;;;15.25;;
61523;SDS011;47393;38.758;-9.164;2023-02-01T14:59:59;22.92;;;15.32;;
61523;SDS011;47393;38.758;-9.164;2023-02-01T15:02:01;20.77;;;15.43;;
61523;SDS011;47393;38.758;-9.164;2023-02-01T15:06:13;25.05;;;14.35;;
61523;SDS011;47393;38.758;-9.164;2023-02-01T15:08:19;23.27;;;14.93;;
61523;SDS011;47393;38.758;-9.164;2023-02-01T15:10:22;27.50;;;15.75;;
61523;SDS011;47393;38.758;-9.164;2023-02-01T15:12:25;16.10;;;12.57;;
61523;SDS011;47393;38.758;-9.164;2023-02-01T15:14:28;21.67;;;15.68;;
61523;SDS011;47393;38.758;-9.164;2023-02-01T15:16:30;26.90;;;14.85;;
61523;SDS011;47393;38.758;-9.164;2023-02-01T15:18:31;28.98;;;16.20;;
61523;SDS011;47393;38.758;-9.164;2023-02-01T15:20:33;27.08;;;15.77;;
61523;SDS011;47393;38.758;-9.164;2023-02-01T15:22:35;24.63;;;14.35;;
61523;SDS011;47393;38.758;-9.164;2023-02-01T15:24:37;27.08;;;15.13;;
61523;SDS011;47393;38.758;-9.164;2023-02-01T15:26:38;23.77;;;14.70;;
61523;SDS011;47393;38.758;-9.164;2023-02-01T15:28:39;19.92;;;14.77;;
61523;SDS011;47393;38.758;-9.164;2023-02-01T15:30:51;19.52;;;12.85;;
61523;SDS011;47393;38.758;-9.164;2023-02-01T15:37:39;13.57;;;11.15;;
61523;SDS011;47393;38.758;-9.164;2023-02-01T15:40:03;17.40;;;11.82;;
61523;SDS011;47393;38.758;-9.164;2023-02-01T15:42:11;14.88;;;11.32;;
61523;SDS011;47393;38.758;-9.164;2023-02-01T15:46:30;11.77;;;10.55;;
61523;SDS011;47393;38.758;-9.164;2023-02-01T15:48:39;26.73;;;11.27;;
61523;SDS011;47393;38.758;-9.164;2023-02-01T15:50:42;20.65;;;11.25;;
61523;SDS011;47393;38.758;-9.164;2023-02-01T15:52:52;23.23;;;11.43;;
61523;SDS011;47393;38.758;-9.164;2023-02-01T15:56:58;19.13;;;10.15;;
61523;SDS011;47393;38.758;-9.164;2023-02-01T15:59:03;15.93;;;10.25;;
61523;SDS011;47393;38.758;-9.164;2023-02-01T16:01:05;17.38;;;8.90;;
61523;SDS011;47393;38.758;-9.164;2023-02-01T16:07:36;14.30;;;8.57;;
61523;SDS011;47393;38.758;-9.164;2023-02-01T16:09:38;17.08;;;9.25;;
61523;SDS011;47393;38.758;-9.164;2023-02-01T16:14:14;12.27;;;9.40;;
61523;SDS011;47393;38.758;-9.164;2023-02-01T16:18:19;11.88;;;8.60;;
61523;SDS011;47393;38.758;-9.164;2023-02-01T16:20:20;24.63;;;8.57;;
61523;SDS011;47393;38.758;-9.164;2023-02-01T16:22:21;20.42;;;9.85;;
61523;SDS011;47393;38.758;-9.164;2023-02-01T16:24:31;9.85;;;8.32;;
61523;SDS011;47393;38.758;-9.164;2023-02-01T16:26:36;14.18;;;9.80;;
61523;SDS011;47393;38.758;-9.164;2023-02-01T16:28:42;15.02;;;8.68;;
61523;SDS011;47393;38.758;-9.164;2023-02-01T16:30:44;16.70;;;10.32;;
61523;SDS011;47393;38.758;-9.164;2023-02-01T16:32:45;19.67;;;9.98;;
61523;SDS011;47393;38.758;-9.164;2023-02-01T16:34:46;10.82;;;9.52;;
61523;SDS011;47393;38.758;-9.164;2023-02-01T16:36:48;16.27;;;10.30;;
61523;SDS011;47393;38.758;-9.164;2023-02-01T16:38:52;12.13;;;10.05;;
61523;SDS011;47393;38.758;-9.164;2023-02-01T16:40:53;27.83;;;10.27;;
61523;SDS011;47393;38.758;-9.164;2023-02-01T16:42:54;17.42;;;10.95;;
61523;SDS011;47393;38.758;-9.164;2023-02-01T16:47:00;15.20;;;10.10;;